createdAt,value
2022-09-10T00:03:05.040Z,3.47
2022-09-10T00:13:14.717Z,2.15
2022-09-10T00:24:11.813Z,4.30
2022-09-10T00:34:25.052Z,4.43
2022-09-10T00:45:04.295Z,3.97
2022-09-10T00:55:15.207Z,3.03
2022-09-10T01:05:25.041Z,3.15
2022-09-10T01:15:41.233Z,3.08
2022-09-10T01:26:23.094Z,2.92
2022-09-10T01:36:40.197Z,3.45
2022-09-10T01:47:57.907Z,3.30
2022-09-10T01:58:20.692Z,5.05
2022-09-10T02:08:56.794Z,3.90
2022-09-10T02:19:07.491Z,4.20
2022-09-10T02:29:17.109Z,3.43
2022-09-10T02:39:26.723Z,2.67
2022-09-10T02:49:35.591Z,3.53
2022-09-10T02:59:44.628Z,1.65
2022-09-10T03:09:55.879Z,3.15
2022-09-10T03:20:04.824Z,2.10
2022-09-10T03:31:07.232Z,3.13
2022-09-10T03:41:22.018Z,2.57
2022-09-10T03:51:32.054Z,3.28
2022-09-10T04:01:41.558Z,2.17
2022-09-10T04:12:01.261Z,2.65
2022-09-10T04:22:14.788Z,2.22
2022-09-10T04:32:45.853Z,5.25
2022-09-10T04:43:05.909Z,1.90
2022-09-10T04:53:42.993Z,3.33
2022-09-10T05:04:09.713Z,2.95
2022-09-10T05:14:40.270Z,2.30
2022-09-10T05:24:56.363Z,2.10
2022-09-10T05:35:05.662Z,2.55
2022-09-10T05:45:21.451Z,3.63
2022-09-10T05:55:28.532Z,2.88
2022-09-10T06:05:38.007Z,3.67
2022-09-10T06:15:45.856Z,3.42
2022-09-10T06:26:05.473Z,4.15
2022-09-10T06:36:14.444Z,3.65
2022-09-10T06:56:54.179Z,5.28
2022-09-10T07:07:03.480Z,5.97
2022-09-10T07:17:12.991Z,5.43
2022-09-10T07:27:22.736Z,4.50
2022-09-10T07:37:30.891Z,5.35
2022-09-10T07:47:39.714Z,5.25
2022-09-10T07:57:47.685Z,4.30
2022-09-10T08:07:58.213Z,4.60
2022-09-10T08:18:07.626Z,4.73
2022-09-10T08:28:21.348Z,4.65
2022-09-10T08:38:35.385Z,5.40
2022-09-10T08:48:48.249Z,4.50
2022-09-10T08:59:03.957Z,5.28
2022-09-10T09:09:16.510Z,4.63
2022-09-10T09:19:34.980Z,5.80
2022-09-10T09:29:52.824Z,4.80
2022-09-10T09:40:16.373Z,5.30
2022-09-10T09:50:26.073Z,5.90
2022-09-10T10:00:39.039Z,5.22
2022-09-10T10:10:54.947Z,5.53
2022-09-10T10:21:16.815Z,5.90
2022-09-10T10:31:26.580Z,6.23
2022-09-10T10:41:53.654Z,6.05
2022-09-10T10:52:09.942Z,6.18
2022-09-10T11:02:20.784Z,5.95
2022-09-10T11:12:35.904Z,5.85
2022-09-10T11:22:48.449Z,6.40
2022-09-10T11:33:03.632Z,6.60
2022-09-10T11:43:14.729Z,5.82
2022-09-10T11:53:25.772Z,6.10
2022-09-10T12:04:03.227Z,6.90
2022-09-10T12:14:19.058Z,5.95
2022-09-10T12:24:32.958Z,6.32
2022-09-10T12:34:42.679Z,6.65
2022-09-10T12:44:50.460Z,6.32
2022-09-10T12:55:09.343Z,6.15
2022-09-10T13:05:34.465Z,5.90
2022-09-10T13:15:51.753Z,7.35
2022-09-10T13:26:38.370Z,6.53
2022-09-10T13:36:58.727Z,7.85
2022-09-10T13:47:12.593Z,7.03
2022-09-10T13:57:27.187Z,8.30
2022-09-10T14:07:34.437Z,7.47
2022-09-10T14:17:47.033Z,7.53
2022-09-10T14:27:55.495Z,14.38
2022-09-10T14:38:08.177Z,13.77
2022-09-10T14:48:36.567Z,12.02
2022-09-10T14:58:46.968Z,8.30
2022-09-10T15:08:56.964Z,8.98
2022-09-10T15:19:06.168Z,7.93
2022-09-10T15:29:14.270Z,5.60
2022-09-10T15:39:23.078Z,8.00
2022-09-10T15:49:30.682Z,11.70
2022-09-10T15:59:39.424Z,9.05
2022-09-10T16:09:46.465Z,8.07
2022-09-10T16:19:55.521Z,6.40
2022-09-10T16:30:05.111Z,7.28
2022-09-10T16:40:16.937Z,6.10
2022-09-10T16:50:24.107Z,5.95
2022-09-10T17:00:32.774Z,5.93
2022-09-10T17:10:55.965Z,8.80
2022-09-10T17:21:03.551Z,7.55
2022-09-10T17:31:13.001Z,6.85
2022-09-10T17:41:20.763Z,5.63
2022-09-10T17:51:31.676Z,5.18
2022-09-10T18:01:40.952Z,5.32
2022-09-10T18:11:49.739Z,6.50
2022-09-10T18:21:56.948Z,8.15
2022-09-10T18:32:09.479Z,5.25
2022-09-10T18:42:16.792Z,4.55
2022-09-10T18:52:32.886Z,5.22
2022-09-10T19:02:46.862Z,5.38
2022-09-10T19:12:55.772Z,5.60
2022-09-10T19:23:19.558Z,5.40
2022-09-10T19:33:37.985Z,5.25
2022-09-10T19:43:48.927Z,6.25
2022-09-10T19:54:05.164Z,5.07
2022-09-10T20:04:35.570Z,5.72
2022-09-10T20:14:53.104Z,4.10
2022-09-10T20:25:04.621Z,5.97
2022-09-10T20:35:14.203Z,2.80
2022-09-10T20:45:21.398Z,3.80
2022-09-10T20:55:30.049Z,4.07
2022-09-10T21:05:37.102Z,2.28
2022-09-10T21:15:45.818Z,3.58
2022-09-10T21:36:53.885Z,1.75
2022-09-10T21:47:01.085Z,1.20
2022-09-10T21:57:12.354Z,2.08
2022-09-10T22:07:19.356Z,3.17
2022-09-10T22:17:28.734Z,2.15
2022-09-10T22:27:36.717Z,1.73
2022-09-10T22:37:46.163Z,1.75
2022-09-10T22:47:53.349Z,1.38
2022-09-10T22:58:02.279Z,2.45
2022-09-10T23:08:09.571Z,2.45
2022-09-10T23:18:18.639Z,1.80
2022-09-10T23:28:34.297Z,2.67
2022-09-10T23:38:52.475Z,1.83
2022-09-10T23:49:06.882Z,2.53
2022-09-10T23:59:16.514Z,1.50
